createdAt,value
2022-08-17T00:00:07.233Z,8.70
2022-08-17T00:03:15.439Z,8.23
2022-08-17T00:05:54.307Z,11.75
2022-08-17T00:08:25.920Z,10.32
2022-08-17T00:10:55.409Z,8.98
2022-08-17T00:13:30.317Z,10.68
2022-08-17T00:16:01.014Z,8.10
2022-08-17T00:18:57.453Z,7.72
2022-08-17T00:21:23.943Z,9.93
2022-08-17T00:23:55.091Z,8.95
2022-08-17T00:26:43.607Z,7.75
2022-08-17T00:29:16.469Z,9.43
2022-08-17T00:31:47.807Z,9.00
2022-08-17T00:34:15.307Z,9.77
2022-08-17T00:36:42.491Z,9.82
2022-08-17T00:39:10.055Z,9.95
2022-08-17T00:41:42.186Z,9.68
2022-08-17T00:44:12.454Z,7.68
2022-08-17T00:46:42.297Z,10.48
2022-08-17T00:49:11.261Z,6.88
2022-08-17T00:51:53.021Z,7.93
2022-08-17T00:54:25.669Z,9.52
2022-08-17T00:57:04.967Z,8.98
2022-08-17T00:59:39.282Z,10.13
2022-08-17T01:02:09.877Z,9.55
2022-08-17T01:04:37.907Z,9.15
2022-08-17T01:07:06.103Z,8.32
2022-08-17T01:09:34.313Z,10.13
2022-08-17T01:12:02.084Z,10.50
2022-08-17T01:14:29.293Z,7.95
2022-08-17T01:16:56.993Z,8.18
2022-08-17T01:19:29.020Z,8.25
2022-08-17T01:22:11.880Z,8.07
2022-08-17T01:24:47.767Z,8.20
2022-08-17T01:27:18.460Z,12.10
2022-08-17T01:29:53.613Z,10.70
2022-08-17T01:32:20.921Z,8.70
2022-08-17T01:34:50.502Z,10.07
2022-08-17T01:37:21.231Z,10.63
2022-08-17T01:39:57.753Z,14.00
2022-08-17T01:42:25.147Z,10.80
2022-08-17T01:44:58.248Z,10.88
2022-08-17T01:47:26.228Z,12.70
2022-08-17T01:49:53.723Z,9.95
2022-08-17T01:52:22.422Z,11.07
2022-08-17T01:54:51.546Z,15.30
2022-08-17T01:57:18.768Z,13.48
2022-08-17T01:59:46.232Z,12.93
2022-08-17T02:02:31.395Z,11.38
2022-08-17T02:04:59.851Z,10.85
2022-08-17T02:07:27.401Z,16.50
2022-08-17T02:09:54.980Z,13.63
2022-08-17T02:12:47.940Z,13.85
2022-08-17T02:15:12.678Z,12.23
2022-08-17T02:17:41.140Z,15.27
2022-08-17T02:20:10.099Z,14.15
2022-08-17T02:22:40.627Z,14.82
2022-08-17T02:25:09.961Z,12.60
2022-08-17T02:27:39.396Z,16.08
2022-08-17T02:30:49.895Z,16.98
2022-08-17T02:32:56.890Z,15.95
2022-08-17T02:35:24.059Z,15.30
2022-08-17T02:37:55.666Z,18.02
2022-08-17T02:40:36.145Z,18.73
2022-08-17T02:43:04.606Z,16.55
2022-08-17T02:45:31.759Z,17.63
2022-08-17T02:47:59.135Z,20.83
2022-08-17T02:50:26.616Z,21.05
2022-08-17T02:53:02.244Z,20.48
2022-08-17T02:55:33.707Z,17.67
2022-08-17T02:58:02.526Z,20.20
2022-08-17T03:00:36.177Z,21.38
2022-08-17T03:03:06.115Z,20.15
2022-08-17T03:05:37.448Z,17.90
2022-08-17T03:08:06.466Z,20.92
2022-08-17T03:10:34.152Z,21.17
2022-08-17T03:13:02.015Z,17.05
2022-08-17T03:15:32.112Z,15.15
2022-08-17T03:18:01.205Z,17.70
2022-08-17T03:20:32.420Z,21.23
2022-08-17T03:23:01.991Z,17.45
2022-08-17T03:25:39.783Z,16.33
2022-08-17T03:28:08.169Z,18.20
2022-08-17T03:30:36.718Z,17.88
2022-08-17T03:33:11.440Z,15.77
2022-08-17T03:35:40.636Z,15.95
2022-08-17T03:38:10.448Z,23.10
2022-08-17T03:40:57.288Z,21.67
2022-08-17T03:43:32.497Z,19.80
2022-08-17T03:46:34.177Z,17.45
2022-08-17T03:49:26.065Z,17.60
2022-08-17T03:52:13.836Z,15.90
2022-08-17T03:55:00.701Z,16.95
2022-08-17T03:57:31.933Z,18.30
2022-08-17T03:59:59.933Z,15.25
2022-08-17T04:02:30.136Z,16.65
2022-08-17T04:04:58.500Z,17.35
2022-08-17T04:07:28.745Z,18.70
2022-08-17T04:09:58.296Z,13.23
2022-08-17T04:12:31.324Z,16.58
2022-08-17T04:14:59.509Z,16.17
2022-08-17T04:17:28.966Z,16.02
2022-08-17T04:19:56.982Z,14.63
2022-08-17T04:22:30.099Z,17.00
2022-08-17T04:25:07.006Z,22.10
2022-08-17T04:27:34.463Z,18.90
2022-08-17T04:30:02.342Z,18.50
2022-08-17T04:33:05.090Z,21.85
2022-08-17T04:35:22.577Z,14.35
2022-08-17T04:37:50.963Z,15.13
2022-08-17T04:40:38.373Z,17.63
2022-08-17T04:43:11.622Z,16.48
2022-08-17T04:45:55.450Z,16.00
2022-08-17T04:48:29.662Z,14.75
2022-08-17T04:51:10.201Z,15.07
2022-08-17T04:53:39.666Z,18.23
2022-08-17T04:56:07.620Z,16.48
2022-08-17T04:58:39.211Z,16.00
2022-08-17T05:01:07.652Z,14.13
2022-08-17T05:03:36.040Z,20.90
2022-08-17T05:06:04.309Z,17.38
2022-08-17T05:08:31.884Z,17.67
2022-08-17T05:11:00.367Z,17.92
2022-08-17T05:13:29.882Z,14.43
2022-08-17T05:16:00.380Z,16.65
2022-08-17T05:18:29.640Z,15.85
2022-08-17T05:20:58.579Z,15.38
2022-08-17T05:23:41.993Z,18.27
2022-08-17T05:26:26.319Z,16.45
2022-08-17T05:28:59.661Z,18.67
2022-08-17T05:31:29.944Z,16.42
2022-08-17T05:33:58.756Z,14.98
2022-08-17T05:36:42.397Z,15.85
2022-08-17T05:39:16.369Z,18.80
2022-08-17T05:41:50.581Z,15.73
2022-08-17T05:44:18.036Z,16.77
2022-08-17T05:46:51.771Z,16.38
2022-08-17T05:49:27.378Z,14.75
2022-08-17T05:52:26.934Z,12.68
2022-08-17T05:55:23.465Z,16.42
2022-08-17T05:57:54.194Z,15.38
2022-08-17T06:01:11.087Z,15.68
2022-08-17T06:04:16.001Z,17.60
2022-08-17T06:07:05.448Z,16.40
2022-08-17T06:09:44.782Z,16.50
2022-08-17T06:12:33.542Z,11.65
2022-08-17T06:15:36.800Z,13.00
2022-08-17T06:18:08.212Z,16.13
2022-08-17T06:21:01.871Z,14.55
2022-08-17T06:23:40.022Z,12.85
2022-08-17T06:26:38.325Z,13.23
2022-08-17T06:29:29.694Z,14.23
2022-08-17T06:31:57.975Z,14.32
2022-08-17T06:34:25.261Z,10.65
2022-08-17T06:37:18.984Z,13.05
2022-08-17T06:40:16.049Z,15.48
2022-08-17T06:43:12.850Z,12.10
2022-08-17T06:46:16.078Z,16.42
2022-08-17T06:48:49.360Z,12.65
2022-08-17T06:51:31.265Z,11.15
2022-08-17T06:54:10.806Z,12.57
2022-08-17T06:57:05.507Z,15.43
2022-08-17T06:59:55.490Z,13.65
2022-08-17T07:02:52.015Z,11.30
2022-08-17T07:05:33.417Z,13.18
2022-08-17T07:08:07.436Z,9.95
2022-08-17T07:10:48.509Z,12.40
2022-08-17T07:13:54.684Z,9.38
2022-08-17T07:16:34.452Z,7.85
2022-08-17T07:19:01.809Z,8.45
2022-08-17T07:22:06.332Z,13.80
2022-08-17T07:24:45.389Z,8.88
2022-08-17T07:27:40.926Z,9.43
2022-08-17T07:30:28.751Z,11.32
2022-08-17T07:33:02.413Z,8.65
2022-08-17T07:35:37.559Z,8.77
2022-08-17T07:38:26.341Z,16.48
2022-08-17T07:41:04.939Z,11.60
2022-08-17T07:43:41.340Z,12.32
2022-08-17T07:46:30.231Z,9.15
2022-08-17T07:49:06.877Z,12.95
2022-08-17T07:51:39.231Z,10.07
2022-08-17T07:54:15.841Z,14.68
2022-08-17T07:56:56.178Z,12.43
2022-08-17T07:59:28.650Z,13.93
2022-08-17T08:02:19.642Z,10.25
2022-08-17T08:05:13.098Z,15.50
2022-08-17T08:08:00.681Z,14.50
2022-08-17T08:10:44.995Z,10.52
2022-08-17T08:13:21.774Z,13.68
2022-08-17T08:15:55.496Z,12.32
2022-08-17T08:18:55.652Z,13.63
2022-08-17T08:21:54.982Z,11.70
2022-08-17T08:24:37.452Z,10.95
2022-08-17T08:27:31.148Z,10.18
2022-08-17T08:30:14.546Z,10.77
2022-08-17T08:33:00.301Z,11.43
2022-08-17T08:35:37.388Z,13.38
2022-08-17T08:38:20.211Z,12.25
2022-08-17T08:41:05.738Z,9.63
2022-08-17T08:44:06.186Z,7.82
2022-08-17T08:46:52.118Z,10.70
2022-08-17T08:50:09.496Z,11.50
2022-08-17T08:52:56.589Z,9.20
2022-08-17T08:55:52.500Z,11.23
2022-08-17T08:58:31.923Z,9.93
2022-08-17T09:01:23.440Z,7.38
2022-08-17T09:04:24.714Z,7.85
2022-08-17T09:07:07.958Z,7.00
2022-08-17T09:09:35.354Z,10.70
2022-08-17T09:12:30.286Z,7.57
2022-08-17T09:15:08.294Z,8.60
2022-08-17T09:17:59.275Z,9.55
2022-08-17T09:20:50.250Z,8.10
2022-08-17T09:23:45.354Z,7.63
2022-08-17T09:26:31.310Z,6.90
2022-08-17T09:29:03.491Z,8.32
2022-08-17T09:31:47.013Z,7.70
2022-08-17T09:34:28.188Z,7.13
2022-08-17T09:37:30.461Z,8.35
2022-08-17T09:40:10.585Z,7.90
2022-08-17T09:42:47.653Z,8.80
2022-08-17T09:45:27.335Z,8.38
2022-08-17T09:48:21.394Z,6.72
2022-08-17T09:51:05.815Z,6.78
2022-08-17T09:53:37.392Z,5.90
2022-08-17T09:56:26.832Z,4.97
2022-08-17T09:59:03.491Z,7.07
2022-08-17T10:02:15.522Z,6.45
2022-08-17T10:04:54.863Z,6.60
2022-08-17T10:07:40.884Z,6.88
2022-08-17T10:10:56.716Z,5.05
2022-08-17T10:14:01.749Z,7.60
2022-08-17T10:17:03.664Z,5.55
2022-08-17T10:19:49.013Z,4.07
2022-08-17T10:23:17.975Z,4.63
2022-08-17T10:26:05.741Z,5.63
2022-08-17T10:29:10.029Z,4.43
2022-08-17T10:32:08.834Z,4.20
2022-08-17T10:35:20.789Z,6.22
2022-08-17T10:37:48.160Z,5.90
2022-08-17T10:40:18.227Z,4.65
2022-08-17T10:42:57.293Z,4.85
2022-08-17T10:46:10.703Z,4.80
2022-08-17T10:48:39.887Z,6.35
2022-08-17T10:51:10.030Z,6.97
2022-08-17T10:53:43.713Z,5.47
2022-08-17T10:56:14.113Z,4.72
2022-08-17T10:58:54.173Z,5.18
2022-08-17T11:01:38.102Z,5.65
2022-08-17T11:06:39.175Z,7.13
2022-08-17T11:09:31.019Z,8.02
2022-08-17T11:12:16.646Z,7.65
2022-08-17T11:15:24.199Z,7.20
2022-08-17T11:17:54.509Z,6.90
2022-08-17T11:20:28.281Z,5.30
2022-08-17T11:23:24.944Z,7.15
2022-08-17T11:25:55.601Z,7.40
2022-08-17T11:28:26.904Z,6.95
2022-08-17T11:30:56.510Z,6.72
2022-08-17T11:33:34.173Z,6.20
2022-08-17T11:36:16.262Z,6.18
2022-08-17T11:39:04.681Z,7.07
2022-08-17T11:41:49.089Z,36.40
2022-08-17T11:44:22.639Z,4.97
2022-08-17T11:47:28.025Z,6.45
2022-08-17T11:50:27.756Z,5.68
2022-08-17T11:52:55.987Z,4.30
2022-08-17T11:55:36.320Z,4.32
2022-08-17T11:58:25.251Z,5.28
2022-08-17T12:00:56.658Z,7.15
2022-08-17T12:03:34.670Z,8.25
2022-08-17T12:06:31.049Z,4.18
2022-08-17T12:09:16.733Z,7.22
2022-08-17T12:12:13.082Z,4.57
2022-08-17T12:17:40.356Z,5.30
2022-08-17T12:20:24.233Z,5.57
2022-08-17T12:23:10.063Z,4.88
2022-08-17T12:25:47.614Z,4.57
2022-08-17T12:28:27.492Z,4.75
2022-08-17T12:30:59.455Z,5.32
2022-08-17T12:33:28.848Z,6.15
2022-08-17T12:36:05.683Z,5.70
2022-08-17T12:38:36.372Z,8.43
2022-08-17T12:41:25.164Z,6.25
2022-08-17T12:44:04.413Z,4.43
2022-08-17T12:46:45.128Z,5.00
2022-08-17T12:49:25.363Z,4.88
2022-08-17T12:52:02.435Z,6.43
2022-08-17T12:54:37.507Z,7.25
2022-08-17T12:57:15.965Z,5.90
2022-08-17T12:59:48.812Z,6.47
2022-08-17T13:02:30.482Z,6.00
2022-08-17T13:05:01.041Z,5.70
2022-08-17T13:07:36.594Z,5.88
2022-08-17T13:10:04.487Z,4.85
2022-08-17T13:12:35.744Z,8.27
2022-08-17T13:15:03.935Z,4.95
2022-08-17T13:17:35.679Z,5.50
2022-08-17T13:20:06.861Z,8.50
2022-08-17T13:22:34.200Z,6.50
2022-08-17T13:25:09.493Z,6.22
2022-08-17T13:27:42.830Z,5.95
2022-08-17T13:30:12.648Z,7.35
2022-08-17T13:32:47.428Z,5.90
2022-08-17T13:35:41.425Z,6.60
2022-08-17T13:38:52.802Z,7.30
2022-08-17T13:41:35.337Z,8.55
2022-08-17T13:44:04.427Z,5.43
2022-08-17T13:46:33.275Z,5.00
2022-08-17T13:49:04.602Z,7.07
2022-08-17T13:51:36.480Z,4.55
2022-08-17T13:54:07.159Z,4.85
2022-08-17T13:56:53.556Z,5.30
2022-08-17T13:59:54.829Z,6.78
2022-08-17T14:02:27.759Z,4.20
2022-08-17T14:04:58.416Z,5.68
2022-08-17T14:07:32.600Z,5.32
2022-08-17T14:10:11.555Z,6.55
2022-08-17T14:12:41.917Z,4.88
2022-08-17T14:15:10.678Z,6.07
2022-08-17T14:17:39.191Z,4.65
2022-08-17T14:20:12.314Z,5.65
2022-08-17T14:22:44.829Z,5.13
2022-08-17T14:25:15.273Z,6.25
2022-08-17T14:27:52.428Z,5.50
2022-08-17T14:30:23.931Z,8.65
2022-08-17T14:32:52.291Z,4.80
2022-08-17T14:35:22.518Z,4.70
2022-08-17T14:37:51.045Z,4.85
2022-08-17T14:40:20.980Z,6.45
2022-08-17T14:42:48.645Z,5.28
2022-08-17T14:45:27.025Z,5.03
2022-08-17T14:48:04.271Z,4.07
2022-08-17T14:50:35.565Z,5.38
2022-08-17T14:53:05.710Z,5.07
2022-08-17T14:55:33.465Z,6.97
2022-08-17T14:58:01.064Z,5.45
2022-08-17T15:00:28.806Z,4.10
2022-08-17T15:02:58.872Z,5.72
2022-08-17T15:05:33.828Z,5.03
2022-08-17T15:08:02.872Z,5.03
2022-08-17T15:10:31.649Z,5.18
2022-08-17T15:13:00.126Z,7.85
2022-08-17T15:15:28.419Z,5.03
2022-08-17T15:17:56.428Z,6.43
2022-08-17T15:20:28.514Z,4.25
2022-08-17T15:22:57.631Z,4.43
2022-08-17T15:25:27.790Z,6.50
2022-08-17T15:27:56.089Z,4.53
2022-08-17T15:30:23.942Z,3.88
2022-08-17T15:32:55.276Z,4.72
2022-08-17T15:35:32.388Z,4.97
2022-08-17T15:38:08.015Z,4.60
2022-08-17T15:40:44.212Z,5.22
2022-08-17T15:43:34.742Z,6.13
2022-08-17T15:46:12.597Z,8.88
2022-08-17T15:48:42.348Z,7.78
2022-08-17T15:51:20.033Z,8.30
2022-08-17T15:53:53.512Z,5.13
2022-08-17T15:56:21.090Z,9.35
2022-08-17T15:58:49.937Z,6.38
2022-08-17T16:03:01.696Z,7.78
2022-08-17T16:04:26.510Z,5.53
2022-08-17T16:06:57.652Z,14.60
2022-08-17T16:09:24.877Z,5.72
2022-08-17T16:11:55.306Z,8.95
2022-08-17T16:14:24.505Z,6.38
2022-08-17T16:17:00.964Z,7.43
2022-08-17T16:19:28.318Z,6.13
2022-08-17T16:21:55.764Z,5.43
2022-08-17T16:24:23.162Z,5.63
2022-08-17T16:26:50.848Z,10.10
2022-08-17T16:29:18.092Z,6.80
2022-08-17T16:31:45.425Z,8.85
2022-08-17T16:34:17.371Z,7.97
2022-08-17T16:36:54.631Z,6.40
2022-08-17T16:39:24.851Z,8.10
2022-08-17T16:41:52.587Z,6.55
2022-08-17T16:44:21.525Z,5.75
2022-08-17T16:46:50.512Z,6.75
2022-08-17T16:49:32.436Z,7.05
2022-08-17T16:52:06.097Z,4.93
2022-08-17T16:54:35.673Z,6.95
2022-08-17T16:57:05.564Z,6.70
2022-08-17T16:59:42.120Z,6.32
2022-08-17T17:02:23.834Z,6.32
2022-08-17T17:05:01.553Z,6.60
2022-08-17T17:07:53.649Z,8.18
2022-08-17T17:10:26.719Z,7.22
2022-08-17T17:13:01.274Z,5.50
2022-08-17T17:15:45.577Z,9.05
2022-08-17T17:18:15.785Z,5.30
2022-08-17T17:21:01.658Z,7.93
2022-08-17T17:23:40.994Z,6.32
2022-08-17T17:26:20.742Z,9.05
2022-08-17T17:29:25.048Z,6.68
2022-08-17T17:32:29.736Z,7.15
2022-08-17T17:35:08.748Z,9.25
2022-08-17T17:37:36.524Z,7.32
2022-08-17T17:40:12.661Z,6.85
2022-08-17T17:42:43.209Z,7.18
2022-08-17T17:45:29.511Z,7.05
2022-08-17T17:47:57.353Z,7.65
2022-08-17T17:50:35.437Z,8.70
2022-08-17T17:53:10.756Z,9.00
2022-08-17T17:55:54.866Z,8.48
2022-08-17T17:58:52.356Z,7.68
2022-08-17T18:01:59.574Z,8.35
2022-08-17T18:04:37.650Z,6.97
2022-08-17T18:07:32.899Z,7.40
2022-08-17T18:10:19.720Z,9.98
2022-08-17T18:13:28.890Z,7.95
2022-08-17T18:16:00.878Z,7.53
2022-08-17T18:18:38.407Z,7.95
2022-08-17T18:21:20.062Z,8.88
2022-08-17T18:23:56.768Z,8.23
2022-08-17T18:26:33.488Z,7.75
2022-08-17T18:29:02.745Z,7.85
2022-08-17T18:31:30.079Z,8.57
2022-08-17T18:37:30.123Z,9.00
2022-08-17T18:39:57.406Z,8.82
2022-08-17T18:42:28.374Z,8.07
2022-08-17T18:44:56.495Z,6.90
2022-08-17T18:47:27.604Z,6.70
2022-08-17T18:50:27.178Z,8.15
2022-08-17T18:52:56.293Z,7.07
2022-08-17T18:55:29.204Z,7.88
2022-08-17T18:58:13.168Z,7.57
2022-08-17T19:00:42.947Z,6.50
2022-08-17T19:03:16.252Z,8.10
2022-08-17T19:05:52.301Z,8.57
2022-08-17T19:08:28.811Z,7.13
2022-08-17T19:10:58.034Z,7.80
2022-08-17T19:13:31.476Z,7.25
2022-08-17T19:16:16.076Z,6.25
2022-08-17T19:21:34.991Z,8.50
2022-08-17T19:24:19.800Z,8.20
2022-08-17T19:26:56.527Z,6.65
2022-08-17T19:29:42.689Z,6.75
2022-08-17T19:32:12.681Z,6.68
2022-08-17T19:34:42.679Z,9.75
2022-08-17T19:37:30.114Z,8.52
2022-08-17T19:40:51.830Z,7.38
2022-08-17T19:43:55.628Z,5.85
2022-08-17T19:46:35.995Z,7.38
2022-08-17T19:49:33.169Z,7.53
2022-08-17T19:52:32.830Z,6.82
2022-08-17T19:55:43.841Z,6.40
2022-08-17T19:58:43.317Z,7.40
2022-08-17T20:01:20.901Z,6.53
2022-08-17T20:04:01.527Z,5.95
2022-08-17T20:06:33.283Z,5.95
2022-08-17T20:09:46.620Z,8.68
2022-08-17T20:12:21.186Z,6.05
2022-08-17T20:14:55.777Z,6.30
2022-08-17T20:17:41.785Z,6.18
2022-08-17T20:20:36.280Z,9.60
2022-08-17T20:23:21.816Z,7.18
2022-08-17T20:26:10.191Z,6.78
2022-08-17T20:28:39.758Z,7.95
2022-08-17T20:31:46.527Z,6.68
2022-08-17T20:34:30.825Z,5.80
2022-08-17T20:37:28.046Z,6.28
2022-08-17T20:39:56.439Z,5.63
2022-08-17T20:42:23.591Z,8.18
2022-08-17T20:44:58.180Z,7.55
2022-08-17T20:48:14.614Z,5.90
2022-08-17T20:50:43.567Z,7.10
2022-08-17T20:53:15.198Z,5.97
2022-08-17T20:55:52.463Z,5.90
2022-08-17T20:58:46.686Z,6.75
2022-08-17T21:01:20.580Z,8.13
2022-08-17T21:03:51.825Z,6.05
2022-08-17T21:06:22.067Z,7.72
2022-08-17T21:08:55.288Z,7.38
2022-08-17T21:12:03.120Z,6.70
2022-08-17T21:14:37.558Z,6.00
2022-08-17T21:17:39.925Z,7.50
2022-08-17T21:20:27.815Z,6.47
2022-08-17T21:23:08.397Z,7.43
2022-08-17T21:26:30.169Z,6.97
2022-08-17T21:29:31.376Z,6.03
2022-08-17T21:32:00.869Z,6.10
2022-08-17T21:35:07.842Z,7.57
2022-08-17T21:37:44.137Z,7.70
2022-08-17T21:40:11.433Z,5.95
2022-08-17T21:42:47.925Z,7.20
2022-08-17T21:45:35.923Z,6.72
2022-08-17T21:48:09.110Z,8.27
2022-08-17T21:50:37.452Z,7.53
2022-08-17T21:53:05.850Z,7.88
2022-08-17T21:55:36.290Z,7.45
2022-08-17T21:58:27.424Z,8.88
2022-08-17T22:01:25.456Z,9.63
2022-08-17T22:04:11.551Z,8.35
2022-08-17T22:06:56.760Z,7.38
2022-08-17T22:09:34.787Z,7.35
2022-08-17T22:12:06.629Z,7.18
2022-08-17T22:14:53.471Z,7.47
2022-08-17T22:17:31.447Z,9.80
2022-08-17T22:20:06.242Z,8.48
2022-08-17T22:22:57.391Z,10.10
2022-08-17T22:25:27.257Z,9.18
2022-08-17T22:27:58.090Z,7.85
2022-08-17T22:30:27.691Z,8.50
2022-08-17T22:32:55.614Z,9.13
2022-08-17T22:35:34.972Z,8.23
2022-08-17T22:38:20.559Z,10.50
2022-08-17T22:41:19.509Z,9.05
2022-08-17T22:43:46.995Z,10.65
2022-08-17T22:46:15.642Z,10.82
2022-08-17T22:48:50.393Z,10.80
2022-08-17T22:51:28.547Z,10.82
2022-08-17T22:54:31.684Z,9.77
2022-08-17T22:57:21.646Z,11.35
2022-08-17T22:59:55.874Z,11.70
2022-08-17T23:02:35.545Z,14.20
2022-08-17T23:05:17.666Z,11.50
2022-08-17T23:07:46.820Z,11.98
2022-08-17T23:10:15.083Z,11.38
2022-08-17T23:12:43.558Z,11.75
2022-08-17T23:15:16.049Z,9.95
2022-08-17T23:17:49.770Z,11.55
2022-08-17T23:20:17.894Z,10.38
2022-08-17T23:22:52.177Z,12.32
2022-08-17T23:25:28.325Z,8.93
2022-08-17T23:27:57.543Z,13.00
2022-08-17T23:30:25.766Z,12.48
2022-08-17T23:32:54.477Z,15.20
2022-08-17T23:35:40.030Z,12.10
2022-08-17T23:38:12.636Z,12.25
2022-08-17T23:40:41.001Z,12.15
2022-08-17T23:43:24.425Z,15.15
2022-08-17T23:45:59.866Z,13.45
2022-08-17T23:48:35.377Z,12.35
2022-08-17T23:51:14.723Z,12.63
2022-08-17T23:53:47.456Z,9.70
2022-08-17T23:56:15.783Z,14.43
2022-08-17T23:58:47.858Z,14.48
